Azamara Quest — 9HOM8 — position and weather

sailwx.info

Track history (hours):
 
Tides and Currents Weather Stations Pressure Air Temp Water Temp Dewpoint Dewpoint Depression Visibility Wind Speed Wind Dir Waves Ship Positions

Azamara Quest

Last reported at 2019-Jun-16 12:00 UTC. Time now 2019-Jun-16 14:35 UTC.
Position N 54°48' W 131°36'.

Length 181 m; draft 5.9 m.

Type: Passenger vessel. MMSI: 256216000.

Wind from 140 at 11 knots

Barometer 1017.0 mb
Air temperature 12.0 ° C
Visibility: greater than 0.0 NM
Dewpoint 5.6 ° C

Date/timePositionNaut miles runAvg speedWind from/ knotsBaromVisibWave heightAir tempDewpointWater temp
2019-Jun-16 12:00N 54°48' W 131°36'8 7.7 140 / 111017.0 0.0 12.0 5.6
2019-Jun-16 10:55N 54°40' W 131°32'813.3
2019-Jun-16 10:17N 54°33' W 131°24'513.3
2019-Jun-16 09:55N 54°29' W 131°20'613.4
2019-Jun-16 09:29N 54°24' W 131°15'713.9
2019-Jun-16 09:00N 54°18' W 131°09'2123.7
2019-Jun-16 09:00N 54°18' W 131°12'816.2 170 / 161017.0 0.1 12.0 5.6
2019-Jun-16 08:30N 54°12' W 131°04'713.9
2019-Jun-16 08:01N 54°05' W 131°01'714.0
2019-Jun-16 07:30N 53°58' W 130°59'714.1
2019-Jun-16 07:00N 53°51' W 130°56'713.8
2019-Jun-16 06:30N 53°44' W 130°55'815.1
2019-Jun-16 06:00N 53°37' W 130°52'5339.0
2019-Jun-16 06:00N 53°42' W 130°54'1326.2 130 / 191017.0 5.4 13.011.111.0
2019-Jun-16 05:29N 53°29' W 130°49'815.3
2019-Jun-16 04:57N 53°21' W 130°44'7418.6
2019-Jun-16 01:00N 52°18' W 129°42'1712.1 180 / 131019.0 5.4 15.0
2019-Jun-15 23:37N 52°05' W 129°26'416.8
2019-Jun-15 23:24N 52°02' W 129°22'717.2
2019-Jun-15 23:00N 51°57' W 129°15'817.1
2019-Jun-15 22:31N 51°50' W 129°06'917.1
2019-Jun-15 22:00N 51°44' W 128°57'815.9
2019-Jun-15 21:30N 51°36' W 128°52'816.2
2019-Jun-15 21:01N 51°28' W 128°51'5279.5
2019-Jun-15 21:00N 51°24' W 128°48'510.8 190 / 81020.010.8 17.011.5
2019-Jun-15 20:31N 51°23' W 128°40'917.7
2019-Jun-15 20:00N 51°17' W 128°29'917.7
2019-Jun-15 19:31N 51°12' W 128°18'917.4
2019-Jun-15 19:01N 51°07' W 128°06'917.6
2019-Jun-15 18:31N 51°02' W 127°55'714.4
2019-Jun-15 18:00N 50°58' W 127°46'6364.7
2019-Jun-15 18:00N 51°00' W 127°54'1224.0 240 / 41020.010.8 17.013.512.0
2019-Jun-15 17:30N 50°54' W 127°38'6514.5
2019-Jun-15 13:00N 50°24' W 126°06'2618.1 320 / 31019.010.8 16.0
2019-Jun-15 11:34N 50°20' W 125°26'211.8
2019-Jun-15 11:24N 50°18' W 125°25'615.3
2019-Jun-15 10:59N 50°12' W 125°22'612.9
2019-Jun-15 10:30N 50°07' W 125°19'611.2
2019-Jun-15 10:01N 50°02' W 125°13'610.9
2019-Jun-15 09:30N 49°57' W 125°09'612.2
2019-Jun-15 09:00N 49°54' W 125°01'611.3
2019-Jun-15 08:30N 49°50' W 124°54'5 9.5
2019-Jun-15 08:00N 49°47' W 124°49'173.1
2019-Jun-15 08:00N 49°48' W 124°48'510.9 330 / 141017.010.8 16.0 8.1
2019-Jun-15 07:31N 49°44' W 124°43'5 9.6
2019-Jun-15 06:59N 49°41' W 124°37'510.0
2019-Jun-15 06:30N 49°38' W 124°31'1122.7
2019-Jun-15 06:00N 49°30' W 124°18'6776.7 110 / 101014.010.8 17.013.511.0
2019-Jun-15 05:59N 49°35' W 124°24'1210.0
2019-Jun-15 04:50N 49°29' W 124°09'3 9.4
2019-Jun-15 04:30N 49°28' W 124°05'5 9.7
2019-Jun-15 04:00N 49°26' W 123°58'510.3
2019-Jun-15 03:31N 49°24' W 123°50'510.2
2019-Jun-15 03:00N 49°23' W 123°43'5574.5
2019-Jun-15 03:00N 49°18' W 123°42'511.1 140 / 61017.010.8 16.0
2019-Jun-15 02:30N 49°21' W 123°35'510.5
2019-Jun-15 02:01N 49°20' W 123°28'510.3
2019-Jun-15 01:31N 49°19' W 123°20'5 9.7
2019-Jun-15 01:01N 49°19' W 123°13'5 9.0
2019-Jun-15 00:31N 49°18' W 123°06'0 0.7
2019-Jun-14 23:57N 49°17' W 123°06'0 0.1
2019-Jun-14 23:30N 49°17' W 123°06'0 0.1
2019-Jun-14 23:00N 49°17' W 123°06'0 0.0
2019-Jun-14 22:30N 49°17' W 123°06'0 0.1
2019-Jun-14 22:00N 49°17' W 123°06'0 0.0
2019-Jun-14 21:27N 49°17' W 123°06'0 0.1
2019-Jun-14 21:00N 49°17' W 123°06'0 0.1
2019-Jun-14 20:30N 49°17' W 123°06'0 0.0
2019-Jun-14 19:57N 49°17' W 123°06'0 0.0
2019-Jun-14 19:24N 49°17' W 123°06'0 0.0
2019-Jun-14 18:57N 49°17' W 123°06'0 0.0
2019-Jun-14 18:30N 49°17' W 123°06'0 0.0
2019-Jun-14 18:00N 49°17' W 123°06'0 0.0
2019-Jun-14 17:27N 49°17' W 123°06'511.7
2019-Jun-14 17:00N 49°12' W 123°06'5141.0 100 / 91018.0 5.4 15.0
2019-Jun-14 16:57N 49°17' W 123°06'0 0.0
2019-Jun-14 16:27N 49°17' W 123°06'0 0.0
2019-Jun-14 16:00N 49°17' W 123°06'0 0.0
2019-Jun-14 15:30N 49°17' W 123°06'0 0.0
2019-Jun-14 15:00N 49°17' W 123°06'0 0.0
2019-Jun-14 14:27N 49°17' W 123°06'0 0.0
2019-Jun-14 14:00N 49°17' W 123°06'0 0.0
2019-Jun-14 13:30N 49°17' W 123°06'0 0.0
2019-Jun-14 13:00N 49°17' W 123°06'0 0.1
2019-Jun-14 12:30N 49°17' W 123°07'2 4.2
2019-Jun-14 12:00N 49°19' W 123°09'713.1
2019-Jun-14 11:31N 49°17' W 123°18'714.9
2019-Jun-14 11:01N 49°10' W 123°20'10577.2
2019-Jun-14 11:00N 49°00' W 123°18'3 5.9 270 / 81014.010.8 12.010.110.0
2019-Jun-14 10:30N 49°03' W 123°19'713.2
2019-Jun-14 10:00N 48°58' W 123°11'713.6
2019-Jun-14 09:31N 48°54' W 123°03'714.3
2019-Jun-14 08:59N 48°49' W 122°55'714.9
2019-Jun-14 08:30N 48°45' W 122°46'815.5
2019-Jun-14 08:00N 48°38' W 122°44'816.1
2019-Jun-14 07:30N 48°30' W 122°44'815.3
2019-Jun-14 07:00N 48°22' W 122°45'1212.8
2019-Jun-14 06:06N 48°10' W 122°45'1413.5
2019-Jun-14 05:06N 47°59' W 122°35'315.0
2019-Jun-14 04:53N 47°56' W 122°32'615.1
2019-Jun-14 04:30N 47°51' W 122°28'814.9
2019-Jun-14 04:00N 47°44' W 122°26'5421.9
2019-Jun-14 04:00N 47°48' W 122°24'1123.1 050 / 181014.010.8 19.0
2019-Jun-14 03:30N 47°37' W 122°26'3 0.6
2019-Jun-13 22:04N 47°37' W 122°21'0 0.0
2019-Jun-13 21:52N 47°37' W 122°21'0 0.0
2019-Jun-13 20:04N 47°37' W 122°21'0 0.0
2019-Jun-13 19:58N 47°37' W 122°21'0 0.0
2019-Jun-13 19:28N 47°37' W 122°21'2 4.7
2019-Jun-13 19:00N 47°36' W 122°18'2 2.0 270 / 31014.010.8 20.0
2019-Jun-13 17:55N 47°37' W 122°21'0 0.0
2019-Jun-13 17:31N 47°37' W 122°21'0 0.0
2019-Jun-13 17:01N 47°37' W 122°21'0 0.0
2019-Jun-13 16:22N 47°37' W 122°21'0 0.0
2019-Jun-13 16:01N 47°37' W 122°21'0 0.0
2019-Jun-13 14:54N 47°37' W 122°21'0 0.7
2019-Jun-13 14:30N 47°36' W 122°21'4 8.2
2019-Jun-13 14:00N 47°37' W 122°27'611.5
2019-Jun-13 13:29N 47°43' W 122°27'510.9
2019-Jun-13 13:01N 47°49' W 122°28'3152.6
2019-Jun-13 13:00N 47°48' W 122°24'715.5 320 / 41013.010.8 14.0 8.0
2019-Jun-13 12:30N 47°54' W 122°30'14 9.4
2019-Jun-13 11:00N 48°06' W 122°42'1111.4 270 / 81010.010.8 13.0 9.110.0
2019-Jun-13 10:03N 48°12' W 122°56'111.3
2019-Jun-13 09:57N 48°12' W 122°57'612.4
2019-Jun-13 09:29N 48°12' W 123°06'612.6
2019-Jun-13 09:00N 48°11' W 123°15'5815.5
2019-Jun-13 09:00N 48°06' W 123°12'918.3 270 / 191010.010.8 13.011.110.0
2019-Jun-13 08:30N 48°10' W 123°24'2212.4
2019-Jun-13 06:45N 48°14' W 123°56'412.5
2019-Jun-13 06:29N 48°15' W 124°01'612.1
2019-Jun-13 06:00N 48°18' W 124°09'612.8
2019-Jun-13 05:30N 48°20' W 124°18'713.3
2019-Jun-13 05:00N 48°23' W 124°27'713.1
2019-Jun-13 04:30N 48°26' W 124°36'612.7
2019-Jun-13 04:00N 48°29' W 124°44'5287.1
2019-Jun-13 04:00N 48°24' W 124°42'918.0 250 / 101012.0 5.4 15.0
2019-Jun-13 03:28N 48°29' W 124°54'612.7
2019-Jun-13 02:59N 48°29' W 125°04'613.0
2019-Jun-13 02:30N 48°29' W 125°13'712.9
2019-Jun-13 02:00N 48°32' W 125°22'713.3
2019-Jun-13 01:30N 48°35' W 125°30'713.6
2019-Jun-13 01:00N 48°39' W 125°39'3309.2
2019-Jun-13 01:00N 48°36' W 125°36'1020.4 310 / 201015.010.8 17.011.5
2019-Jun-13 00:31N 48°42' W 125°48'714.9
2019-Jun-13 00:00N 48°46' W 125°57'714.8
2019-Jun-12 23:30N 48°50' W 126°07'714.7
2019-Jun-12 23:00N 48°54' W 126°16'7502.6
2019-Jun-12 23:00N 48°48' W 126°12'1427.7 290 / 181015.010.8 18.012.711.0
2019-Jun-12 22:30N 48°59' W 126°25'714.0
2019-Jun-12 22:01N 49°03' W 126°33'713.8
2019-Jun-12 21:30N 49°07' W 126°42'914.0
2019-Jun-12 20:52N 49°12' W 126°53'1011.9
2019-Jun-12 20:00N 49°18' W 127°06'1716.7 300 / 151015.010.8 16.012.411.0
2019-Jun-12 19:00N 49°24' W 127°30'4314.4 320 / 201016.0 5.4 14.0
2019-Jun-12 16:00N 49°54' W 128°18'3269.5 350 / 251017.0 5.4 13.0
2019-Jun-12 15:59N 49°57' W 128°19'814.0
2019-Jun-12 15:26N 50°02' W 128°27'614.2
2019-Jun-12 15:00N 50°07' W 128°34'714.1
2019-Jun-12 14:31N 50°12' W 128°41'713.9
2019-Jun-12 14:00N 50°17' W 128°48'714.7
2019-Jun-12 13:30N 50°22' W 128°57'714.6
2019-Jun-12 13:00N 50°27' W 129°05'715.0
2019-Jun-12 12:30N 50°32' W 129°14'714.6
2019-Jun-12 12:00N 50°37' W 129°22'714.4
2019-Jun-12 11:30N 50°42' W 129°30'714.8
2019-Jun-12 11:00N 50°48' W 129°39'714.7
2019-Jun-12 10:30N 50°53' W 129°47'714.9
2019-Jun-12 10:00N 50°58' W 129°56'4223.1
2019-Jun-12 10:00N 51°00' W 130°00'4 8.2 330 / 101022.0 2.2 12.010.111.0
2019-Jun-12 09:30N 51°03' W 130°05'714.9
2019-Jun-12 09:00N 51°08' W 130°13'714.9
2019-Jun-12 08:30N 51°12' W 130°23'815.3
2019-Jun-12 08:00N 51°17' W 130°32'815.3
2019-Jun-12 07:30N 51°23' W 130°41'815.0
2019-Jun-12 07:00N 51°28' W 130°50'4233.6
2019-Jun-12 07:00N 51°24' W 130°48'1122.4 300 / 81023.0 2.2 12.0
2019-Jun-12 06:30N 51°33' W 130°59'915.3
2019-Jun-12 05:56N 51°38' W 131°10'815.4
2019-Jun-12 05:26N 51°44' W 131°19'612.5
2019-Jun-12 05:00N 51°48' W 131°24'6516.3 220 / 81023.0 0.1 12.0
2019-Jun-12 01:00N 52°36' W 132°36'1414.0 170 / 121023.0 0.0 12.0 7.9
2019-Jun-12 00:00N 52°48' W 132°48'3517.5 170 / 151022.0 2.2 12.010.111.0
2019-Jun-11 22:00N 53°18' W 133°18'12415.5 170 / 191022.0 2.2 12.010.111.0
2019-Jun-11 14:00N 55°12' W 134°42'5117.0 170 / 191017.0 0.1 12.0 7.9
2019-Jun-11 11:00N 56°00' W 135°12'2120.6 160 / 161015.010.8 12.010.111.0
2019-Jun-11 10:00N 56°18' W 135°30'4214.0 140 / 171015.0 5.4 12.010.111.0
2019-Jun-11 07:00N 57°00' W 135°30'9 1.8 200 / 181015.0 5.4 12.0
2019-Jun-11 02:00N 57°06' W 135°18'3 1.1 250 / 21017.010.8 14.010.2
2019-Jun-10 23:00N 57°06' W 135°24'0 0.0 350 / 21019.010.8 15.0 9.211.0
2019-Jun-10 21:00N 57°06' W 135°24'0 0.0 320 / 31020.010.8 15.0 9.211.0
2019-Jun-10 19:00N 57°06' W 135°24'0 0.0 360 / 21020.0 5.4 12.0
2019-Jun-10 18:00N 57°06' W 135°24'48 6.9 020 / 31020.0 5.4 12.0
2019-Jun-10 11:00N 57°30' W 136°42'2512.4 080 / 161018.010.8 12.0 7.911.0
2019-Jun-10 09:00N 57°54' W 136°54'3323.5 080 / 61017.010.8 12.0 7.910.0
2019-Jun-10 07:35N 58°19' W 136°12'119.9
2019-Jun-10 07:30N 58°19' W 136°09'1019.4
2019-Jun-10 07:01N 58°19' W 135°51'2110.5
2019-Jun-10 07:00N 58°18' W 135°48'815.9 140 / 121019.010.8 13.0
2019-Jun-10 06:30N 58°16' W 135°34'1223.7
2019-Jun-10 06:00N 58°12' W 135°12'4816.0 280 / 91019.010.8 14.0
2019-Jun-10 03:00N 59°00' W 135°12'24 4.8 120 / 21022.010.8 15.0 6.8
2019-Jun-09 22:00N 59°24' W 135°18'0 0.0 210 / 81022.010.8 17.011.512.0
2019-Jun-09 16:00N 59°24' W 135°18'0 0.0 220 / 101022.010.8 12.0
2019-Jun-09 15:00N 59°24' W 135°18'12 4.0 200 / 101023.010.8 12.0 7.9
2019-Jun-09 12:00N 59°12' W 135°18'18 9.1 150 / 151023.010.8 12.010.011.0
2019-Jun-09 10:00N 58°54' W 135°12'3712.2 150 / 161023.010.8 12.010.011.0
2019-Jun-09 07:00N 58°18' W 135°00'14 6.8 170 / 141025.0 5.4 12.0
2019-Jun-09 05:00N 58°06' W 135°12'1715.9 320 / 71024.0 5.4 13.0
2019-Jun-09 03:54N 58°16' W 135°39'511.4
2019-Jun-09 03:29N 58°18' W 135°47'511.3
2019-Jun-09 03:00N 58°20' W 135°57'611.3
2019-Jun-09 02:30N 58°19' W 136°08'918.1
2019-Jun-09 02:00N 58°12' W 136°18'17 8.7 230 / 151024.0 5.4 13.0 6.8
2019-Jun-09 00:00N 58°00' W 136°42'23 7.5 220 / 91023.010.8 16.0 8.112.0
2019-Jun-08 21:00N 57°48' W 137°18'19 4.8 010 / 1821023.010.8 18.014.611.0
2019-Jun-08 17:00N 58°06' W 137°30'3511.8 140 / 61022.010.8 13.0
2019-Jun-08 14:00N 58°12' W 136°24'724.6 280 / 21020.010.8 11.0 4.3
2019-Jun-08 13:43N 58°18' W 136°18'316.1
2019-Jun-08 13:30N 58°19' W 136°12'815.8
2019-Jun-08 13:00N 58°20' W 135°57'5313.6
2019-Jun-08 13:00N 58°18' W 135°48'3 6.3 150 / 41019.0 5.4 10.0 5.6
2019-Jun-08 12:30N 58°18' W 135°42'816.1
2019-Jun-08 11:59N 58°14' W 135°28'1716.9
2019-Jun-08 11:00N 58°06' W 135°00'62 2.8 300 / 131019.010.8 13.0 9.1 9.0
2019-Jun-07 13:00N 57°18' W 133°48'9 8.8 290 / 121015.010.8 12.0 2.9
2019-Jun-07 12:00N 57°12' W 134°00'57 8.2 230 / 71014.010.8 12.010.1 9.0
2019-Jun-07 05:00N 56°18' W 133°24'6716.8 240 / 81012.010.8 16.0
2019-Jun-07 01:00N 55°30' W 132°00'18 3.0 330 / 191011.010.8 16.010.4
2019-Jun-06 19:00N 55°18' W 131°36'   340 / 81012.010.8 15.0
Track history (hours):
 
Tides and Currents Weather Stations Pressure Air Temp Water Temp Dewpoint Dewpoint Depression Visibility Wind Speed Wind Dir Waves Ship Positions

Azamara Quest

Last reported at 2019-Jun-16 12:00 UTC. Time now 2019-Jun-16 14:35 UTC.
Position N 54°48' W 131°36'.

Length 181 m; draft 5.9 m.

Type: Passenger vessel. MMSI: 256216000.

Wind from 140 at 11 knots

Barometer 1017.0 mb
Air temperature 12.0 ° C
Visibility: greater than 0.0 NM
Dewpoint 5.6 ° C

Date/timePositionNaut miles runAvg speedWind from/ knotsBaromVisibWave heightAir tempDewpointWater temp
2019-Jun-16 12:00N 54°48' W 131°36'8 7.7 140 / 111017.0 0.0 12.0 5.6
2019-Jun-16 10:55N 54°40' W 131°32'813.3
2019-Jun-16 10:17N 54°33' W 131°24'513.3
2019-Jun-16 09:55N 54°29' W 131°20'613.4
2019-Jun-16 09:29N 54°24' W 131°15'713.9
2019-Jun-16 09:00N 54°18' W 131°09'2123.7
2019-Jun-16 09:00N 54°18' W 131°12'816.2 170 / 161017.0 0.1 12.0 5.6
2019-Jun-16 08:30N 54°12' W 131°04'713.9
2019-Jun-16 08:01N 54°05' W 131°01'714.0
2019-Jun-16 07:30N 53°58' W 130°59'714.1
2019-Jun-16 07:00N 53°51' W 130°56'713.8
2019-Jun-16 06:30N 53°44' W 130°55'815.1
2019-Jun-16 06:00N 53°37' W 130°52'5339.0
2019-Jun-16 06:00N 53°42' W 130°54'1326.2 130 / 191017.0 5.4 13.011.111.0
2019-Jun-16 05:29N 53°29' W 130°49'815.3
2019-Jun-16 04:57N 53°21' W 130°44'7418.6
2019-Jun-16 01:00N 52°18' W 129°42'1712.1 180 / 131019.0 5.4 15.0
2019-Jun-15 23:37N 52°05' W 129°26'416.8
2019-Jun-15 23:24N 52°02' W 129°22'717.2
2019-Jun-15 23:00N 51°57' W 129°15'817.1
2019-Jun-15 22:31N 51°50' W 129°06'917.1
2019-Jun-15 22:00N 51°44' W 128°57'815.9
2019-Jun-15 21:30N 51°36' W 128°52'816.2
2019-Jun-15 21:01N 51°28' W 128°51'5279.5
2019-Jun-15 21:00N 51°24' W 128°48'510.8 190 / 81020.010.8 17.011.5
2019-Jun-15 20:31N 51°23' W 128°40'917.7
2019-Jun-15 20:00N 51°17' W 128°29'917.7
2019-Jun-15 19:31N 51°12' W 128°18'917.4
2019-Jun-15 19:01N 51°07' W 128°06'917.6
2019-Jun-15 18:31N 51°02' W 127°55'714.4
2019-Jun-15 18:00N 50°58' W 127°46'6364.7
2019-Jun-15 18:00N 51°00' W 127°54'1224.0 240 / 41020.010.8 17.013.512.0
2019-Jun-15 17:30N 50°54' W 127°38'6514.5
2019-Jun-15 13:00N 50°24' W 126°06'2618.1 320 / 31019.010.8 16.0
2019-Jun-15 11:34N 50°20' W 125°26'211.8
2019-Jun-15 11:24N 50°18' W 125°25'615.3
2019-Jun-15 10:59N 50°12' W 125°22'612.9
2019-Jun-15 10:30N 50°07' W 125°19'611.2
2019-Jun-15 10:01N 50°02' W 125°13'610.9
2019-Jun-15 09:30N 49°57' W 125°09'612.2
2019-Jun-15 09:00N 49°54' W 125°01'611.3
2019-Jun-15 08:30N 49°50' W 124°54'5 9.5
2019-Jun-15 08:00N 49°47' W 124°49'173.1
2019-Jun-15 08:00N 49°48' W 124°48'510.9 330 / 141017.010.8 16.0 8.1
2019-Jun-15 07:31N 49°44' W 124°43'5 9.6
2019-Jun-15 06:59N 49°41' W 124°37'510.0
2019-Jun-15 06:30N 49°38' W 124°31'1122.7
2019-Jun-15 06:00N 49°30' W 124°18'6776.7 110 / 101014.010.8 17.013.511.0
2019-Jun-15 05:59N 49°35' W 124°24'1210.0
2019-Jun-15 04:50N 49°29' W 124°09'3 9.4
2019-Jun-15 04:30N 49°28' W 124°05'5 9.7
2019-Jun-15 04:00N 49°26' W 123°58'510.3
2019-Jun-15 03:31N 49°24' W 123°50'510.2
2019-Jun-15 03:00N 49°23' W 123°43'5574.5
2019-Jun-15 03:00N 49°18' W 123°42'511.1 140 / 61017.010.8 16.0
2019-Jun-15 02:30N 49°21' W 123°35'510.5
2019-Jun-15 02:01N 49°20' W 123°28'510.3
2019-Jun-15 01:31N 49°19' W 123°20'5 9.7
2019-Jun-15 01:01N 49°19' W 123°13'5 9.0
2019-Jun-15 00:31N 49°18' W 123°06'0 0.7
2019-Jun-14 23:57N 49°17' W 123°06'0 0.1
2019-Jun-14 23:30N 49°17' W 123°06'0 0.1
2019-Jun-14 23:00N 49°17' W 123°06'0 0.0
2019-Jun-14 22:30N 49°17' W 123°06'0 0.1
2019-Jun-14 22:00N 49°17' W 123°06'0 0.0
2019-Jun-14 21:27N 49°17' W 123°06'0 0.1
2019-Jun-14 21:00N 49°17' W 123°06'0 0.1
2019-Jun-14 20:30N 49°17' W 123°06'0 0.0
2019-Jun-14 19:57N 49°17' W 123°06'0 0.0
2019-Jun-14 19:24N 49°17' W 123°06'0 0.0
2019-Jun-14 18:57N 49°17' W 123°06'0 0.0
2019-Jun-14 18:30N 49°17' W 123°06'0 0.0
2019-Jun-14 18:00N 49°17' W 123°06'0 0.0
2019-Jun-14 17:27N 49°17' W 123°06'511.7
2019-Jun-14 17:00N 49°12' W 123°06'5141.0 100 / 91018.0 5.4 15.0
2019-Jun-14 16:57N 49°17' W 123°06'0 0.0
2019-Jun-14 16:27N 49°17' W 123°06'0 0.0
2019-Jun-14 16:00N 49°17' W 123°06'0 0.0
2019-Jun-14 15:30N 49°17' W 123°06'0 0.0
2019-Jun-14 15:00N 49°17' W 123°06'0 0.0
2019-Jun-14 14:27N 49°17' W 123°06'0 0.0
2019-Jun-14 14:00N 49°17' W 123°06'0 0.0
2019-Jun-14 13:30N 49°17' W 123°06'0 0.0
2019-Jun-14 13:00N 49°17' W 123°06'0 0.1
2019-Jun-14 12:30N 49°17' W 123°07'2 4.2
2019-Jun-14 12:00N 49°19' W 123°09'713.1
2019-Jun-14 11:31N 49°17' W 123°18'714.9
2019-Jun-14 11:01N 49°10' W 123°20'10577.2
2019-Jun-14 11:00N 49°00' W 123°18'3 5.9 270 / 81014.010.8 12.010.110.0
2019-Jun-14 10:30N 49°03' W 123°19'713.2
2019-Jun-14 10:00N 48°58' W 123°11'713.6
2019-Jun-14 09:31N 48°54' W 123°03'714.3
2019-Jun-14 08:59N 48°49' W 122°55'714.9
2019-Jun-14 08:30N 48°45' W 122°46'815.5
2019-Jun-14 08:00N 48°38' W 122°44'816.1
2019-Jun-14 07:30N 48°30' W 122°44'815.3
2019-Jun-14 07:00N 48°22' W 122°45'1212.8
2019-Jun-14 06:06N 48°10' W 122°45'1413.5
2019-Jun-14 05:06N 47°59' W 122°35'315.0
2019-Jun-14 04:53N 47°56' W 122°32'615.1
2019-Jun-14 04:30N 47°51' W 122°28'814.9
2019-Jun-14 04:00N 47°44' W 122°26'5421.9
2019-Jun-14 04:00N 47°48' W 122°24'1123.1 050 / 181014.010.8 19.0
2019-Jun-14 03:30N 47°37' W 122°26'3 0.6
2019-Jun-13 22:04N 47°37' W 122°21'0 0.0
2019-Jun-13 21:52N 47°37' W 122°21'0 0.0
2019-Jun-13 20:04N 47°37' W 122°21'0 0.0
2019-Jun-13 19:58N 47°37' W 122°21'0 0.0
2019-Jun-13 19:28N 47°37' W 122°21'2 4.7
2019-Jun-13 19:00N 47°36' W 122°18'2 2.0 270 / 31014.010.8 20.0
2019-Jun-13 17:55N 47°37' W 122°21'0 0.0
2019-Jun-13 17:31N 47°37' W 122°21'0 0.0
2019-Jun-13 17:01N 47°37' W 122°21'0 0.0
2019-Jun-13 16:22N 47°37' W 122°21'0 0.0
2019-Jun-13 16:01N 47°37' W 122°21'0 0.0
2019-Jun-13 14:54N 47°37' W 122°21'0 0.7
2019-Jun-13 14:30N 47°36' W 122°21'4 8.2
2019-Jun-13 14:00N 47°37' W 122°27'611.5
2019-Jun-13 13:29N 47°43' W 122°27'510.9
2019-Jun-13 13:01N 47°49' W 122°28'3152.6
2019-Jun-13 13:00N 47°48' W 122°24'715.5 320 / 41013.010.8 14.0 8.0
2019-Jun-13 12:30N 47°54' W 122°30'14 9.4
2019-Jun-13 11:00N 48°06' W 122°42'1111.4 270 / 81010.010.8 13.0 9.110.0
2019-Jun-13 10:03N 48°12' W 122°56'111.3
2019-Jun-13 09:57N 48°12' W 122°57'612.4
2019-Jun-13 09:29N 48°12' W 123°06'612.6
2019-Jun-13 09:00N 48°11' W 123°15'5815.5
2019-Jun-13 09:00N 48°06' W 123°12'918.3 270 / 191010.010.8 13.011.110.0
2019-Jun-13 08:30N 48°10' W 123°24'2212.4
2019-Jun-13 06:45N 48°14' W 123°56'412.5
2019-Jun-13 06:29N 48°15' W 124°01'612.1
2019-Jun-13 06:00N 48°18' W 124°09'612.8
2019-Jun-13 05:30N 48°20' W 124°18'713.3
2019-Jun-13 05:00N 48°23' W 124°27'713.1
2019-Jun-13 04:30N 48°26' W 124°36'612.7
2019-Jun-13 04:00N 48°29' W 124°44'5287.1
2019-Jun-13 04:00N 48°24' W 124°42'918.0 250 / 101012.0 5.4 15.0
2019-Jun-13 03:28N 48°29' W 124°54'612.7
2019-Jun-13 02:59N 48°29' W 125°04'613.0
2019-Jun-13 02:30N 48°29' W 125°13'712.9
2019-Jun-13 02:00N 48°32' W 125°22'713.3
2019-Jun-13 01:30N 48°35' W 125°30'713.6
2019-Jun-13 01:00N 48°39' W 125°39'3309.2
2019-Jun-13 01:00N 48°36' W 125°36'1020.4 310 / 201015.010.8 17.011.5
2019-Jun-13 00:31N 48°42' W 125°48'714.9
2019-Jun-13 00:00N 48°46' W 125°57'714.8
2019-Jun-12 23:30N 48°50' W 126°07'714.7
2019-Jun-12 23:00N 48°54' W 126°16'7502.6
2019-Jun-12 23:00N 48°48' W 126°12'1427.7 290 / 181015.010.8 18.012.711.0
2019-Jun-12 22:30N 48°59' W 126°25'714.0
2019-Jun-12 22:01N 49°03' W 126°33'713.8
2019-Jun-12 21:30N 49°07' W 126°42'914.0
2019-Jun-12 20:52N 49°12' W 126°53'1011.9
2019-Jun-12 20:00N 49°18' W 127°06'1716.7 300 / 151015.010.8 16.012.411.0
2019-Jun-12 19:00N 49°24' W 127°30'4314.4 320 / 201016.0 5.4 14.0
2019-Jun-12 16:00N 49°54' W 128°18'3269.5 350 / 251017.0 5.4 13.0
2019-Jun-12 15:59N 49°57' W 128°19'814.0
2019-Jun-12 15:26N 50°02' W 128°27'614.2
2019-Jun-12 15:00N 50°07' W 128°34'714.1
2019-Jun-12 14:31N 50°12' W 128°41'713.9
2019-Jun-12 14:00N 50°17' W 128°48'714.7
2019-Jun-12 13:30N 50°22' W 128°57'714.6
2019-Jun-12 13:00N 50°27' W 129°05'715.0
2019-Jun-12 12:30N 50°32' W 129°14'714.6
2019-Jun-12 12:00N 50°37' W 129°22'714.4
2019-Jun-12 11:30N 50°42' W 129°30'714.8
2019-Jun-12 11:00N 50°48' W 129°39'714.7
2019-Jun-12 10:30N 50°53' W 129°47'714.9
2019-Jun-12 10:00N 50°58' W 129°56'4223.1
2019-Jun-12 10:00N 51°00' W 130°00'4 8.2 330 / 101022.0 2.2 12.010.111.0
2019-Jun-12 09:30N 51°03' W 130°05'714.9
2019-Jun-12 09:00N 51°08' W 130°13'714.9
2019-Jun-12 08:30N 51°12' W 130°23'815.3
2019-Jun-12 08:00N 51°17' W 130°32'815.3
2019-Jun-12 07:30N 51°23' W 130°41'815.0
2019-Jun-12 07:00N 51°28' W 130°50'4233.6
2019-Jun-12 07:00N 51°24' W 130°48'1122.4 300 / 81023.0 2.2 12.0
2019-Jun-12 06:30N 51°33' W 130°59'915.3
2019-Jun-12 05:56N 51°38' W 131°10'815.4
2019-Jun-12 05:26N 51°44' W 131°19'612.5
2019-Jun-12 05:00N 51°48' W 131°24'6516.3 220 / 81023.0 0.1 12.0
2019-Jun-12 01:00N 52°36' W 132°36'1414.0 170 / 121023.0 0.0 12.0 7.9
2019-Jun-12 00:00N 52°48' W 132°48'3517.5 170 / 151022.0 2.2 12.010.111.0
2019-Jun-11 22:00N 53°18' W 133°18'12415.5 170 / 191022.0 2.2 12.010.111.0
2019-Jun-11 14:00N 55°12' W 134°42'5117.0 170 / 191017.0 0.1 12.0 7.9
2019-Jun-11 11:00N 56°00' W 135°12'2120.6 160 / 161015.010.8 12.010.111.0
2019-Jun-11 10:00N 56°18' W 135°30'4214.0 140 / 171015.0 5.4 12.010.111.0
2019-Jun-11 07:00N 57°00' W 135°30'9 1.8 200 / 181015.0 5.4 12.0
2019-Jun-11 02:00N 57°06' W 135°18'3 1.1 250 / 21017.010.8 14.010.2
2019-Jun-10 23:00N 57°06' W 135°24'0 0.0 350 / 21019.010.8 15.0 9.211.0
2019-Jun-10 21:00N 57°06' W 135°24'0 0.0 320 / 31020.010.8 15.0 9.211.0
2019-Jun-10 19:00N 57°06' W 135°24'0 0.0 360 / 21020.0 5.4 12.0
2019-Jun-10 18:00N 57°06' W 135°24'48 6.9 020 / 31020.0 5.4 12.0
2019-Jun-10 11:00N 57°30' W 136°42'2512.4 080 / 161018.010.8 12.0 7.911.0
2019-Jun-10 09:00N 57°54' W 136°54'3323.5 080 / 61017.010.8 12.0 7.910.0
2019-Jun-10 07:35N 58°19' W 136°12'119.9
2019-Jun-10 07:30N 58°19' W 136°09'1019.4
2019-Jun-10 07:01N 58°19' W 135°51'2110.5
2019-Jun-10 07:00N 58°18' W 135°48'815.9 140 / 121019.010.8 13.0
2019-Jun-10 06:30N 58°16' W 135°34'1223.7
2019-Jun-10 06:00N 58°12' W 135°12'4816.0 280 / 91019.010.8 14.0
2019-Jun-10 03:00N 59°00' W 135°12'24 4.8 120 / 21022.010.8 15.0 6.8
2019-Jun-09 22:00N 59°24' W 135°18'0 0.0 210 / 81022.010.8 17.011.512.0
2019-Jun-09 16:00N 59°24' W 135°18'0 0.0 220 / 101022.010.8 12.0
2019-Jun-09 15:00N 59°24' W 135°18'12 4.0 200 / 101023.010.8 12.0 7.9
2019-Jun-09 12:00N 59°12' W 135°18'18 9.1 150 / 151023.010.8 12.010.011.0
2019-Jun-09 10:00N 58°54' W 135°12'3712.2 150 / 161023.010.8 12.010.011.0
2019-Jun-09 07:00N 58°18' W 135°00'14 6.8 170 / 141025.0 5.4 12.0
2019-Jun-09 05:00N 58°06' W 135°12'1715.9 320 / 71024.0 5.4 13.0
2019-Jun-09 03:54N 58°16' W 135°39'511.4
2019-Jun-09 03:29N 58°18' W 135°47'511.3
2019-Jun-09 03:00N 58°20' W 135°57'611.3
2019-Jun-09 02:30N 58°19' W 136°08'918.1
2019-Jun-09 02:00N 58°12' W 136°18'17 8.7 230 / 151024.0 5.4 13.0 6.8
2019-Jun-09 00:00N 58°00' W 136°42'23 7.5 220 / 91023.010.8 16.0 8.112.0
2019-Jun-08 21:00N 57°48' W 137°18'19 4.8 010 / 1821023.010.8 18.014.611.0
2019-Jun-08 17:00N 58°06' W 137°30'3511.8 140 / 61022.010.8 13.0
2019-Jun-08 14:00N 58°12' W 136°24'724.6 280 / 21020.010.8 11.0 4.3
2019-Jun-08 13:43N 58°18' W 136°18'316.1
2019-Jun-08 13:30N 58°19' W 136°12'815.8
2019-Jun-08 13:00N 58°20' W 135°57'5313.6
2019-Jun-08 13:00N 58°18' W 135°48'3 6.3 150 / 41019.0 5.4 10.0 5.6
2019-Jun-08 12:30N 58°18' W 135°42'816.1
2019-Jun-08 11:59N 58°14' W 135°28'1716.9
2019-Jun-08 11:00N 58°06' W 135°00'62 2.8 300 / 131019.010.8 13.0 9.1 9.0
2019-Jun-07 13:00N 57°18' W 133°48'9 8.8 290 / 121015.010.8 12.0 2.9
2019-Jun-07 12:00N 57°12' W 134°00'57 8.2 230 / 71014.010.8 12.010.1 9.0
2019-Jun-07 05:00N 56°18' W 133°24'6716.8 240 / 81012.010.8 16.0
2019-Jun-07 01:00N 55°30' W 132°00'18 3.0 330 / 191011.010.8 16.010.4
2019-Jun-06 19:00N 55°18' W 131°36'   340 / 81012.010.8 15.0

Dump ship's entire track history